Time;durP1;ratioP1;P1;durP2;ratioP2;P2;SDS_P1;SDS_P2;PMS_P1;PMS_P2;Temp;Humidity;BMP_temperature;BMP_pressure;BME280_temperature;BME280_humidity;BME280_pressure;Samples;Min_cycle;Max_cycle;Signal;HPM_P1;HPM_P2
2021/10/15 00:02:08;;;;;;;82.93;45.33;;;6.80;99.90;;;;;;4938103;29;20023;-74
2021/10/15 00:04:33;;;;;;;66.80;40.97;;;6.80;99.90;;;;;;4954175;29;20034;-73
2021/10/15 00:06:59;;;;;;;81.78;42.92;;;6.90;99.90;;;;;;4941216;29;20031;-74
2021/10/15 00:09:24;;;;;;;84.60;45.70;;;6.80;99.90;;;;;;4942932;29;20418;-73
2021/10/15 00:11:50;;;;;;;77.10;44.83;;;6.80;99.90;;;;;;4934738;29;20035;-74
2021/10/15 00:14:16;;;;;;;71.63;41.88;;;6.90;99.90;;;;;;4936772;29;20055;-74
2021/10/15 00:16:41;;;;;;;74.65;42.25;;;6.90;99.90;;;;;;4932587;28;20115;-74
2021/10/15 00:19:07;;;;;;;78.93;43.03;;;6.90;99.90;;;;;;4945202;29;20438;-74
2021/10/15 00:21:32;;;;;;;72.88;40.00;;;6.80;99.90;;;;;;4953721;29;20074;-74
2021/10/15 00:23:58;;;;;;;82.75;41.45;;;6.70;99.90;;;;;;4926609;29;20032;-74
2021/10/15 00:26:23;;;;;;;74.03;39.97;;;6.60;99.90;;;;;;4930315;29;20102;-75
2021/10/15 00:28:49;;;;;;;65.85;37.22;;;6.60;99.90;;;;;;4944753;29;20047;-74
2021/10/15 00:31:15;;;;;;;99.38;45.65;;;6.50;99.90;;;;;;4940768;29;20023;-74
2021/10/15 00:33:40;;;;;;;72.25;39.50;;;6.40;99.90;;;;;;4943703;29;20056;-74
2021/10/15 00:36:06;;;;;;;69.30;38.15;;;6.50;99.90;;;;;;4921212;29;20033;-74
2021/10/15 00:38:31;;;;;;;72.75;39.47;;;6.50;99.90;;;;;;4936519;29;20057;-74
2021/10/15 00:40:57;;;;;;;97.07;45.30;;;6.60;99.90;;;;;;4953489;29;20023;-74
2021/10/15 00:43:25;;;;;;;71.05;39.08;;;6.60;99.90;;;;;;4953721;29;20106;-74
2021/10/15 00:45:50;;;;;;;84.13;42.40;;;6.50;99.90;;;;;;4954292;29;20024;-74
2021/10/15 00:48:16;;;;;;;55.55;36.28;;;6.60;99.90;;;;;;4947753;29;20032;-74
2021/10/15 00:50:44;;;;;;;72.78;39.00;;;6.50;99.90;;;;;;4917198;29;20059;-74
2021/10/15 00:53:10;;;;;;;74.22;39.10;;;6.60;99.90;;;;;;4940814;29;20070;-74
2021/10/15 00:55:36;;;;;;;57.97;37.47;;;6.70;99.90;;;;;;4940692;28;20024;-74
2021/10/15 00:58:02;;;;;;;59.60;35.90;;;6.70;99.90;;;;;;4929763;29;20024;-74
2021/10/15 01:00:28;;;;;;;67.03;37.72;;;6.60;99.90;;;;;;4930229;29;20573;-74
2021/10/15 01:02:53;;;;;;;67.25;37.88;;;6.70;99.90;;;;;;4953309;29;20414;-74
2021/10/15 01:05:19;;;;;;;75.88;40.53;;;6.60;99.90;;;;;;4940860;29;20028;-74
2021/10/15 01:07:45;;;;;;;98.35;43.63;;;6.60;99.90;;;;;;4953418;29;20674;-73
2021/10/15 01:10:11;;;;;;;59.83;36.40;;;6.50;99.90;;;;;;4935522;28;20049;-73
2021/10/15 01:12:37;;;;;;;61.88;37.90;;;6.50;99.90;;;;;;4940839;28;20031;-73
2021/10/15 01:15:04;;;;;;;63.65;38.92;;;6.60;99.90;;;;;;4923456;29;20024;-73
2021/10/15 01:17:29;;;;;;;73.22;41.65;;;6.70;99.90;;;;;;4953274;28;20023;-73
2021/10/15 01:19:56;;;;;;;64.05;37.83;;;6.70;99.90;;;;;;4953389;29;20055;-73
2021/10/15 01:22:28;;;;;;;65.03;39.83;;;6.70;99.90;;;;;;4953063;28;20040;-73
2021/10/15 01:24:55;;;;;;;66.43;40.33;;;6.70;99.90;;;;;;4953684;28;20454;-73
2021/10/15 01:27:21;;;;;;;65.50;37.83;;;6.80;99.90;;;;;;4956791;29;20774;-73
2021/10/15 01:29:47;;;;;;;60.60;37.45;;;6.80;99.90;;;;;;4956858;28;20027;-72
2021/10/15 01:32:14;;;;;;;59.67;37.83;;;6.80;99.90;;;;;;4956703;29;20019;-73
2021/10/15 01:34:40;;;;;;;66.85;39.33;;;6.80;99.90;;;;;;4937749;29;20490;-72
2021/10/15 01:37:05;;;;;;;68.75;39.22;;;6.80;99.90;;;;;;4945631;29;20059;-72
2021/10/15 01:39:31;;;;;;;60.63;37.63;;;6.70;99.90;;;;;;4956727;29;20037;-72
2021/10/15 01:41:56;;;;;;;68.18;40.00;;;6.80;99.90;;;;;;4956607;29;20389;-72
2021/10/15 01:44:22;;;;;;;80.88;42.50;;;6.70;99.90;;;;;;4961190;28;20489;-72
2021/10/15 01:46:48;;;;;;;63.70;37.47;;;6.50;99.90;;;;;;4965068;28;20031;-72
2021/10/15 01:49:13;;;;;;;53.03;33.55;;;6.40;99.90;;;;;;4956521;28;20023;-72
2021/10/15 01:51:39;;;;;;;58.45;35.33;;;6.50;99.90;;;;;;4963044;28;20439;-72
2021/10/15 01:54:06;;;;;;;57.20;34.63;;;6.70;99.90;;;;;;4958670;28;20051;-72
2021/10/15 01:56:34;;;;;;;65.40;36.90;;;6.70;99.90;;;;;;4956450;28;20023;-73
2021/10/15 01:59:00;;;;;;;55.38;34.58;;;6.70;99.90;;;;;;4956351;29;20038;-73
2021/10/15 02:01:25;;;;;;;52.95;33.65;;;6.70;99.90;;;;;;4956268;29;20417;-72
2021/10/15 02:03:51;;;;;;;51.92;32.42;;;6.70;99.90;;;;;;4939248;29;20039;-72
2021/10/15 02:06:17;;;;;;;61.50;35.83;;;6.80;99.90;;;;;;4930735;29;20031;-71
2021/10/15 02:08:42;;;;;;;65.40;36.72;;;6.70;99.90;;;;;;4955989;29;20027;-72
2021/10/15 02:11:08;;;;;;;50.20;32.58;;;6.60;99.90;;;;;;4938835;29;20662;-74
2021/10/15 02:13:34;;;;;;;45.35;30.52;;;6.60;99.90;;;;;;4956088;29;20027;-74
2021/10/15 02:15:59;;;;;;;54.88;34.33;;;6.60;99.90;;;;;;4938899;29;20049;-74
2021/10/15 02:18:25;;;;;;;48.92;32.45;;;6.60;99.90;;;;;;4956069;28;20102;-74
2021/10/15 02:20:51;;;;;;;49.33;31.55;;;6.70;99.90;;;;;;4955784;29;20089;-74
2021/10/15 02:23:16;;;;;;;61.83;34.95;;;6.50;99.90;;;;;;4955968;29;20118;-74
2021/10/15 02:25:42;;;;;;;51.40;33.13;;;6.20;99.90;;;;;;4955926;28;20042;-74
2021/10/15 02:28:07;;;;;;;60.08;35.03;;;6.30;99.90;;;;;;4951764;28;20040;-74
2021/10/15 02:30:33;;;;;;;48.65;31.60;;;6.20;99.90;;;;;;4938359;29;20478;-75
2021/10/15 02:32:59;;;;;;;49.15;30.42;;;6.30;99.90;;;;;;4939269;29;20142;-74
2021/10/15 02:35:24;;;;;;;75.68;37.92;;;6.40;99.90;;;;;;4929513;29;20030;-75
2021/10/15 02:37:50;;;;;;;77.88;38.55;;;6.20;99.90;;;;;;4954446;28;20038;-74
2021/10/15 02:40:15;;;;;;;54.55;32.90;;;6.00;99.90;;;;;;4938409;29;20540;-74
2021/10/15 02:42:41;;;;;;;46.45;30.48;;;6.10;99.90;;;;;;4955440;29;20043;-75
2021/10/15 02:45:08;;;;;;;48.60;31.38;;;6.10;99.90;;;;;;4955622;29;20031;-75
2021/10/15 02:47:33;;;;;;;51.10;31.75;;;6.20;99.90;;;;;;4938220;29;20126;-75
2021/10/15 02:49:59;;;;;;;45.50;30.92;;;6.20;99.90;;;;;;4955370;29;20095;-75
2021/10/15 02:52:25;;;;;;;47.47;31.83;;;6.20;99.90;;;;;;4934131;29;20031;-74
2021/10/15 02:54:50;;;;;;;86.63;40.55;;;6.20;99.90;;;;;;4946525;29;20090;-75
2021/10/15 02:57:16;;;;;;;95.57;42.88;;;6.10;99.90;;;;;;4925299;29;20074;-74
2021/10/15 02:59:41;;;;;;;58.95;32.10;;;6.00;99.90;;;;;;4945379;29;20039;-75
2021/10/15 03:02:07;;;;;;;81.45;37.95;;;6.10;99.90;;;;;;4949355;29;20084;-76
2021/10/15 03:04:32;;;;;;;196.30;52.20;;;6.10;99.90;;;;;;4928557;29;20065;-75
2021/10/15 03:06:58;;;;;;;159.55;48.55;;;6.00;99.90;;;;;;4952192;29;20035;-74
2021/10/15 03:09:24;;;;;;;79.85;32.15;;;5.80;99.90;;;;;;4935916;29;20058;-75
2021/10/15 03:11:50;;;;;;;57.47;32.85;;;5.80;99.90;;;;;;4951290;28;20427;-75
2021/10/15 03:14:15;;;;;;;80.50;39.08;;;5.90;99.90;;;;;;4955136;29;20059;-74
2021/10/15 03:16:41;;;;;;;110.43;43.03;;;5.90;99.90;;;;;;4955011;29;20035;-74
2021/10/15 03:19:06;;;;;;;203.50;54.45;;;6.00;99.90;;;;;;4954954;29;20035;-74
2021/10/15 03:21:32;;;;;;;64.80;34.63;;;5.90;99.90;;;;;;4935769;29;20040;-74
2021/10/15 03:23:57;;;;;;;58.75;33.00;;;5.80;99.90;;;;;;4919266;29;20442;-74
2021/10/15 03:26:23;;;;;;;52.63;31.50;;;5.80;99.90;;;;;;4951197;29;20028;-74
2021/10/15 03:28:48;;;;;;;98.07;42.20;;;5.90;99.90;;;;;;4954608;29;20046;-75
2021/10/15 03:31:14;;;;;;;258.65;57.10;;;5.90;99.90;;;;;;4941618;29;20402;-74
2021/10/15 03:33:39;;;;;;;502.38;69.45;;;5.70;99.90;;;;;;4945732;29;20035;-73
2021/10/15 03:36:05;;;;;;;213.75;49.13;;;5.60;99.90;;;;;;4950750;28;20035;-73
2021/10/15 03:38:30;;;;;;;443.77;62.03;;;5.60;99.90;;;;;;4954507;28;20031;-73
2021/10/15 03:40:56;;;;;;;79.88;34.15;;;5.60;99.90;;;;;;4952255;29;20038;-73
2021/10/15 03:43:21;;;;;;;118.40;39.05;;;5.70;99.90;;;;;;4944329;29;20422;-73
2021/10/15 03:45:47;;;;;;;53.92;31.83;;;5.70;99.90;;;;;;4967575;28;20039;-73
2021/10/15 03:48:12;;;;;;;38.70;28.00;;;5.70;99.90;;;;;;4954093;28;20046;-73
2021/10/15 03:50:38;;;;;;;43.30;28.23;;;5.80;99.90;;;;;;4941185;29;20042;-74
2021/10/15 03:53:04;;;;;;;53.97;31.88;;;5.80;99.90;;;;;;4945504;29;20110;-74
2021/10/15 03:55:29;;;;;;;47.80;29.60;;;5.80;99.90;;;;;;4948164;29;20101;-74
2021/10/15 03:57:55;;;;;;;42.90;29.02;;;5.80;99.90;;;;;;4943732;29;20023;-73
2021/10/15 04:00:20;;;;;;;52.22;32.75;;;5.80;99.90;;;;;;4922000;29;20119;-73
2021/10/15 04:02:46;;;;;;;53.08;31.98;;;5.80;99.90;;;;;;4926292;29;20031;-73
2021/10/15 04:05:13;;;;;;;49.20;30.45;;;5.80;99.90;;;;;;4954095;29;20102;-73
2021/10/15 04:07:39;;;;;;;47.45;31.80;;;5.80;99.90;;;;;;4936841;29;20027;-74
2021/10/15 04:10:07;;;;;;;51.13;32.00;;;5.90;99.90;;;;;;4938944;29;20024;-74
2021/10/15 04:12:33;;;;;;;54.00;33.45;;;5.80;99.90;;;;;;4943399;29;20016;-74
2021/10/15 04:14:59;;;;;;;55.88;32.53;;;5.80;99.90;;;;;;4936812;29;20027;-74
2021/10/15 04:17:25;;;;;;;50.72;31.98;;;5.70;99.90;;;;;;4953862;29;20478;-74
2021/10/15 04:19:50;;;;;;;43.67;30.60;;;5.90;99.90;;;;;;4939065;29;20043;-74
2021/10/15 04:22:16;;;;;;;58.58;35.08;;;5.70;99.90;;;;;;4934568;29;20028;-74
2021/10/15 04:24:42;;;;;;;50.65;32.28;;;5.70;99.90;;;;;;4949224;29;20042;-74
2021/10/15 04:27:08;;;;;;;53.53;33.45;;;5.70;99.90;;;;;;4953696;29;20027;-75
2021/10/15 04:29:33;;;;;;;58.38;34.72;;;5.70;99.90;;;;;;4934957;29;20028;-75
2021/10/15 04:31:59;;;;;;;51.00;30.83;;;5.50;99.90;;;;;;4942431;29;20079;-74
2021/10/15 04:34:25;;;;;;;69.88;33.90;;;5.50;99.90;;;;;;4940736;29;20051;-73
2021/10/15 04:36:50;;;;;;;51.13;33.15;;;5.30;99.90;;;;;;4928693;29;20036;-73
2021/10/15 04:39:16;;;;;;;38.70;30.02;;;5.30;99.90;;;;;;4948669;29;20028;-72
2021/10/15 04:41:42;;;;;;;49.55;33.05;;;5.40;99.90;;;;;;4946036;28;20483;-74
2021/10/15 04:44:07;;;;;;;52.67;37.83;;;5.60;99.90;;;;;;4931419;29;20565;-74
2021/10/15 04:46:34;;;;;;;54.90;41.97;;;5.60;99.90;;;;;;4953765;29;20038;-74
2021/10/15 04:48:59;;;;;;;58.35;37.20;;;5.40;99.90;;;;;;4933670;29;20039;-74
2021/10/15 04:51:25;;;;;;;47.80;33.35;;;5.40;99.90;;;;;;4943521;29;20386;-74
2021/10/15 04:53:51;;;;;;;47.50;32.92;;;5.30;99.90;;;;;;4923451;29;20059;-74
2021/10/15 04:56:16;;;;;;;52.65;36.88;;;5.40;99.90;;;;;;4944828;29;20028;-74
2021/10/15 04:58:42;;;;;;;63.35;34.38;;;5.20;99.90;;;;;;4949412;29;20028;-74
2021/10/15 05:01:07;;;;;;;52.35;32.50;;;4.90;99.90;;;;;;4938744;29;20034;-72
2021/10/15 05:03:33;;;;;;;44.88;30.17;;;4.90;99.90;;;;;;4955192;29;20042;-73
2021/10/15 05:05:58;;;;;;;49.70;31.40;;;5.00;99.90;;;;;;4946603;29;20109;-73
2021/10/15 05:08:30;;;;;;;47.63;32.67;;;5.00;99.90;;;;;;4925376;29;20035;-73
2021/10/15 05:10:55;;;;;;;44.35;30.35;;;5.20;99.90;;;;;;4920805;29;20115;-73
2021/10/15 05:13:21;;;;;;;46.42;31.10;;;5.40;99.90;;;;;;4933817;29;20506;-73
2021/10/15 05:15:47;;;;;;;41.17;29.42;;;5.40;99.90;;;;;;4938013;29;20542;-73
2021/10/15 05:18:16;;;;;;;41.88;29.67;;;5.40;99.90;;;;;;4952921;29;20031;-73
2021/10/15 05:20:43;;;;;;;40.53;30.10;;;5.50;99.90;;;;;;4956959;29;20039;-73
2021/10/15 05:23:10;;;;;;;42.97;29.58;;;5.50;99.90;;;;;;4937113;29;20494;-73
2021/10/15 05:25:36;;;;;;;45.15;37.13;;;5.50;99.90;;;;;;4947141;29;20031;-74
2021/10/15 05:28:03;;;;;;;41.22;28.58;;;5.50;99.90;;;;;;4943924;28;20035;-73
2021/10/15 05:30:29;;;;;;;38.70;30.02;;;5.60;99.90;;;;;;4956807;28;20027;-73
2021/10/15 05:32:54;;;;;;;34.17;27.42;;;5.70;99.90;;;;;;4923841;29;20027;-73
2021/10/15 05:35:20;;;;;;;52.60;38.03;;;5.70;99.90;;;;;;4947091;29;20034;-73
2021/10/15 05:37:46;;;;;;;43.22;29.15;;;5.40;99.90;;;;;;4940899;29;20027;-73
2021/10/15 05:40:12;;;;;;;38.00;28.55;;;5.40;99.90;;;;;;4920321;29;20035;-73
2021/10/15 05:42:47;;;;;;;37.65;28.38;;;5.60;99.90;;;;;;4935878;29;20023;-73
2021/10/15 05:45:13;;;;;;;44.08;29.70;;;5.60;99.90;;;;;;4973674;28;20489;-72
2021/10/15 05:47:39;;;;;;;41.55;29.05;;;5.70;99.90;;;;;;4958131;28;20549;-73
2021/10/15 05:50:05;;;;;;;38.42;28.48;;;5.60;99.90;;;;;;4956550;28;20027;-73
2021/10/15 05:52:37;;;;;;;36.50;26.27;;;5.60;99.90;;;;;;4964970;28;20074;-73
2021/10/15 06:00:36;;;;;;;33.40;24.80;;;5.70;99.90;;;;;;4925155;29;20048;-72
2021/10/15 06:03:01;;;;;;;33.55;24.42;;;5.80;99.90;;;;;;4920093;29;20027;-73
2021/10/15 06:16:12;;;;;;;34.40;24.35;;;5.80;99.90;;;;;;4937044;29;20020;-74
2021/10/15 06:18:39;;;;;;;29.80;23.30;;;5.80;99.90;;;;;;4919787;29;20035;-73
2021/10/15 06:21:06;;;;;;;34.50;24.10;;;5.90;99.90;;;;;;4919721;29;20443;-73
2021/10/15 06:23:32;;;;;;;34.85;24.40;;;5.90;99.90;;;;;;4926106;29;20073;-73
2021/10/15 06:25:59;;;;;;;33.67;24.85;;;6.00;99.90;;;;;;4955886;29;20028;-73
2021/10/15 06:28:24;;;;;;;36.53;25.95;;;6.00;99.90;;;;;;4938421;29;20035;-72
2021/10/15 06:30:50;;;;;;;30.77;22.85;;;6.00;99.90;;;;;;4955569;29;20035;-73
2021/10/15 06:33:16;;;;;;;32.03;22.67;;;5.90;99.90;;;;;;4949828;28;20032;-73
2021/10/15 06:35:41;;;;;;;36.45;25.85;;;6.00;99.90;;;;;;4919479;29;20048;-73
2021/10/15 06:38:07;;;;;;;31.45;23.20;;;6.10;99.90;;;;;;4955238;29;20106;-73
2021/10/15 06:40:34;;;;;;;34.05;24.23;;;6.10;99.90;;;;;;4955623;29;20031;-73
2021/10/15 06:43:00;;;;;;;31.50;23.35;;;6.20;99.90;;;;;;4938446;29;20027;-72
2021/10/15 06:45:25;;;;;;;31.38;22.95;;;6.30;99.90;;;;;;4951212;28;20126;-73
2021/10/15 06:47:51;;;;;;;29.08;22.63;;;6.40;99.90;;;;;;4938264;29;20410;-72
2021/10/15 06:50:16;;;;;;;28.35;21.10;;;6.50;99.90;;;;;;4955371;29;20151;-71
2021/10/15 06:52:49;;;;;;;29.17;22.20;;;6.60;99.90;;;;;;4963808;28;20501;-73
2021/10/15 06:55:16;;;;;;;27.38;20.65;;;6.70;99.90;;;;;;4955450;29;20019;-72
2021/10/15 06:57:42;;;;;;;29.23;22.08;;;6.80;99.90;;;;;;4938199;29;20034;-72
2021/10/15 07:00:10;;;;;;;30.35;21.38;;;6.90;99.90;;;;;;4935975;29;20030;-73
2021/10/15 07:02:35;;;;;;;26.75;20.85;;;6.90;99.90;;;;;;4955133;29;20482;-73
2021/10/15 07:05:01;;;;;;;24.98;19.60;;;7.00;99.90;;;;;;4936406;29;20127;-73
2021/10/15 07:07:27;;;;;;;27.83;19.88;;;7.20;99.90;;;;;;4938008;29;20023;-72
2021/10/15 07:09:52;;;;;;;24.33;19.00;;;7.10;99.90;;;;;;4955046;29;20486;-72
2021/10/15 07:12:17;;;;;;;25.80;19.40;;;7.20;99.90;;;;;;4937778;29;20497;-71
2021/10/15 07:14:43;;;;;;;21.83;17.77;;;7.10;99.90;;;;;;4953714;29;20019;-73
2021/10/15 07:17:08;;;;;;;26.70;18.73;;;7.10;99.90;;;;;;4935810;29;20162;-73
2021/10/15 07:19:34;;;;;;;25.42;19.33;;;7.10;99.90;;;;;;4949776;28;20043;-73
2021/10/15 07:21:59;;;;;;;23.80;19.17;;;7.00;99.90;;;;;;4954693;28;20028;-74
2021/10/15 07:24:25;;;;;;;24.08;17.38;;;7.10;99.90;;;;;;4953447;29;20508;-73
2021/10/15 07:26:50;;;;;;;23.38;17.95;;;7.10;99.90;;;;;;4942708;29;20122;-72
2021/10/15 07:29:16;;;;;;;21.33;17.13;;;7.10;99.90;;;;;;4941584;29;20032;-74
2021/10/15 07:31:42;;;;;;;25.92;17.92;;;7.10;99.90;;;;;;4947899;29;20027;-74
2021/10/15 07:34:08;;;;;;;22.27;17.00;;;7.20;99.90;;;;;;4931202;29;20104;-73
2021/10/15 07:36:34;;;;;;;22.88;17.45;;;7.30;99.90;;;;;;4942198;29;20015;-74
2021/10/15 07:38:59;;;;;;;24.50;19.23;;;7.40;99.90;;;;;;4954432;29;20046;-74
2021/10/15 07:41:25;;;;;;;35.03;26.67;;;7.50;99.90;;;;;;4954465;29;20478;-74
2021/10/15 07:43:51;;;;;;;27.20;20.88;;;7.60;99.90;;;;;;4954336;28;20058;-73
2021/10/15 07:46:19;;;;;;;23.92;17.75;;;7.60;99.90;;;;;;4937364;29;20034;-74
2021/10/15 07:48:45;;;;;;;21.70;15.63;;;7.70;99.90;;;;;;4954256;29;20023;-73
2021/10/15 07:51:10;;;;;;;20.10;15.70;;;7.80;99.90;;;;;;4956763;28;20487;-73
2021/10/15 07:53:36;;;;;;;22.02;14.38;;;7.80;99.90;;;;;;4960209;28;20050;-73
2021/10/15 07:56:02;;;;;;;19.88;15.90;;;7.80;99.90;;;;;;4954286;28;20027;-71
2021/10/15 07:58:27;;;;;;;19.90;14.45;;;8.00;99.90;;;;;;4953936;29;20502;-71
2021/10/15 08:00:53;;;;;;;17.73;14.27;;;8.00;99.90;;;;;;4934899;29;20035;-73
2021/10/15 08:03:18;;;;;;;19.35;14.25;;;8.10;99.90;;;;;;4935626;29;20031;-74
2021/10/15 08:05:44;;;;;;;21.05;13.65;;;8.10;99.90;;;;;;4930319;29;20027;-73
2021/10/15 08:08:09;;;;;;;18.13;13.88;;;8.10;99.90;;;;;;4930742;29;20541;-73
2021/10/15 08:10:35;;;;;;;18.33;14.25;;;8.20;99.90;;;;;;4936546;29;20050;-73
2021/10/15 08:13:01;;;;;;;17.88;13.43;;;8.30;99.90;;;;;;4936810;29;20031;-73
2021/10/15 08:15:27;;;;;;;17.92;13.63;;;8.30;99.90;;;;;;4947551;29;20386;-72
2021/10/15 08:17:53;;;;;;;16.38;13.02;;;8.30;99.90;;;;;;4947793;28;20027;-73
2021/10/15 08:20:20;;;;;;;17.00;12.93;;;8.40;99.90;;;;;;4934659;29;20039;-73
2021/10/15 08:22:50;;;;;;;16.70;13.18;;;8.40;99.90;;;;;;4917615;29;20027;-73
2021/10/15 08:25:15;;;;;;;18.48;13.63;;;8.50;99.90;;;;;;4941563;29;20426;-73
2021/10/15 08:27:41;;;;;;;16.20;12.70;;;8.50;99.90;;;;;;4936398;29;20093;-73
2021/10/15 08:30:07;;;;;;;17.70;13.02;;;8.60;99.90;;;;;;4953851;28;20086;-71
2021/10/15 08:32:33;;;;;;;14.77;12.38;;;8.80;99.90;;;;;;4933514;29;20506;-71
2021/10/15 08:34:58;;;;;;;14.77;12.80;;;9.00;99.90;;;;;;4953739;28;20030;-73
2021/10/15 08:37:24;;;;;;;18.30;12.80;;;9.10;99.90;;;;;;4936451;29;20186;-74
2021/10/15 08:39:49;;;;;;;15.13;11.43;;;9.10;99.90;;;;;;4953838;29;20031;-74
2021/10/15 08:42:15;;;;;;;13.68;11.48;;;9.00;99.90;;;;;;4954445;29;20572;-73
2021/10/15 08:44:45;;;;;;;15.00;12.50;;;8.90;99.90;;;;;;4949403;28;20035;-74
2021/10/15 08:47:13;;;;;;;13.98;11.63;;;9.10;99.90;;;;;;4954300;28;20379;-73
2021/10/15 08:49:39;;;;;;;13.32;10.85;;;9.20;99.90;;;;;;4953535;28;20038;-73
2021/10/15 08:52:05;;;;;;;14.43;12.32;;;9.50;99.90;;;;;;4962183;28;20030;-70
2021/10/15 08:54:32;;;;;;;13.60;10.70;;;9.50;99.90;;;;;;4953338;28;20090;-72
2021/10/15 08:56:58;;;;;;;18.42;15.00;;;9.60;99.90;;;;;;4953301;29;20454;-73
2021/10/15 08:59:41;;;;;;;16.75;13.48;;;9.70;99.90;;;;;;4945986;29;20367;-72
2021/10/15 09:02:18;;;;;;;15.00;11.80;;;9.60;99.90;;;;;;4937759;29;20394;-73
2021/10/15 09:04:53;;;;;;;17.35;11.40;;;9.60;99.90;;;;;;4936115;29;20027;-72
2021/10/15 09:07:21;;;;;;;15.20;11.80;;;9.70;99.90;;;;;;4953327;28;20035;-73
2021/10/15 09:09:48;;;;;;;13.35;11.80;;;9.70;99.90;;;;;;4953479;29;20027;-73
2021/10/15 09:12:18;;;;;;;15.27;10.90;;;9.60;99.90;;;;;;4953341;28;20030;-73
2021/10/15 09:14:46;;;;;;;13.80;11.40;;;9.70;99.90;;;;;;4953428;29;20027;-73
2021/10/15 09:17:30;;;;;;;13.73;11.00;;;9.80;99.90;;;;;;4953379;29;20051;-73
2021/10/15 09:19:55;;;;;;;12.45;10.57;;;10.00;99.90;;;;;;4953422;29;20031;-73
2021/10/15 09:22:47;;;;;;;13.35;10.50;;;10.10;99.90;;;;;;4953263;29;20097;-73
2021/10/15 09:25:14;;;;;;;12.93;10.93;;;10.20;99.90;;;;;;4934290;29;20102;-73
2021/10/15 09:27:45;;;;;;;13.73;11.27;;;10.40;99.90;;;;;;4953141;29;20122;-73
2021/10/15 09:30:22;;;;;;;14.85;11.05;;;10.50;99.90;;;;;;4953127;29;20505;-73
2021/10/15 09:32:50;;;;;;;16.05;11.07;;;10.60;99.90;;;;;;4953010;29;20047;-73
2021/10/15 09:35:22;;;;;;;19.00;11.80;;;10.70;99.90;;;;;;4953372;28;20062;-73
2021/10/15 09:37:49;;;;;;;12.18;10.77;;;10.60;99.90;;;;;;4953060;28;20057;-73
2021/10/15 09:40:20;;;;;;;13.00;11.25;;;10.60;99.90;;;;;;4953202;29;20023;-73
2021/10/15 09:42:49;;;;;;;12.63;10.63;;;10.40;99.90;;;;;;4953409;29;20040;-75
2021/10/15 09:45:19;;;;;;;15.48;11.15;;;10.40;99.90;;;;;;4953317;28;20019;-73
2021/10/15 09:47:57;;;;;;;12.90;11.30;;;10.30;99.90;;;;;;4950251;29;20034;-75
2021/10/15 09:50:25;;;;;;;14.23;11.95;;;10.30;99.90;;;;;;4933078;29;20039;-75
2021/10/15 09:52:55;;;;;;;14.05;11.48;;;10.20;99.90;;;;;;4944865;29;20031;-75
2021/10/15 09:55:35;;;;;;;14.75;11.48;;;10.20;99.90;;;;;;4955002;29;20050;-75
2021/10/15 09:58:13;;;;;;;14.73;11.50;;;10.20;99.90;;;;;;4930075;29;20560;-76
2021/10/15 10:00:39;;;;;;;16.83;11.85;;;10.40;99.90;;;;;;4947693;28;20027;-75
2021/10/15 10:03:05;;;;;;;13.15;11.25;;;10.60;99.90;;;;;;4967728;28;20030;-75
2021/10/15 10:05:30;;;;;;;13.68;11.38;;;10.50;99.90;;;;;;4964530;28;20500;-76
2021/10/15 10:07:57;;;;;;;14.65;10.93;;;10.50;99.90;;;;;;4942346;29;20126;-75
2021/10/15 10:10:26;;;;;;;17.77;11.57;;;10.70;99.90;;;;;;4946201;28;20031;-75
2021/10/15 10:12:52;;;;;;;16.33;11.35;;;10.80;99.90;;;;;;4967427;28;20405;-75
2021/10/15 10:15:25;;;;;;;16.90;10.75;;;10.90;99.90;;;;;;4966433;28;20027;-73
2021/10/15 10:18:22;;;;;;;13.88;10.85;;;11.00;99.90;;;;;;4967196;28;20478;-74
2021/10/15 10:20:54;;;;;;;;;;;11.10;99.90;;;;;;4941940;29;20024;-74
2021/10/15 10:23:26;;;;;;;14.32;10.25;;;11.30;99.90;;;;;;4963881;28;20365;-74
2021/10/15 10:25:56;;;;;;;13.82;10.60;;;11.10;99.90;;;;;;4949944;28;20092;-75
2021/10/15 10:28:22;;;;;;;12.52;9.95;;;10.90;99.90;;;;;;4965744;28;20075;-74
2021/10/15 10:31:04;;;;;;;11.93;10.13;;;10.90;99.90;;;;;;4966621;28;20026;-74
2021/10/15 10:33:30;;;;;;;16.17;10.85;;;10.80;99.90;;;;;;4965839;28;20042;-74
2021/10/15 10:36:11;;;;;;;15.73;10.35;;;10.80;99.90;;;;;;4967856;28;20032;-74
2021/10/15 10:38:38;;;;;;;13.85;10.00;;;11.00;99.90;;;;;;4953342;28;20026;-74
2021/10/15 10:41:06;;;;;;;13.55;9.88;;;11.30;99.90;;;;;;4965495;28;20055;-74
2021/10/15 10:43:55;;;;;;;11.70;9.10;;;11.50;99.90;;;;;;4963794;28;20027;-74
2021/10/15 10:46:26;;;;;;;12.80;10.27;;;11.60;99.90;;;;;;4962906;28;20031;-73
2021/10/15 10:48:51;;;;;;;10.82;9.15;;;11.80;99.90;;;;;;4950933;29;20042;-74
2021/10/15 10:51:20;;;;;;;11.65;9.70;;;11.80;99.90;;;;;;4966493;28;20023;-73
2021/10/15 10:56:38;;;;;;;11.48;9.93;;;11.90;99.90;;;;;;4965967;28;20027;-74
2021/10/15 10:59:16;;;;;;;12.13;9.75;;;11.80;99.90;;;;;;4963108;28;20098;-74
2021/10/15 11:01:48;;;;;;;12.88;8.55;;;11.60;99.90;;;;;;4939482;29;20385;-74
2021/10/15 11:04:30;;;;;;;12.65;8.88;;;11.50;99.90;;;;;;4955276;28;20087;-74
2021/10/15 11:07:07;;;;;;;11.00;8.70;;;11.40;99.90;;;;;;4949186;29;20023;-74
2021/10/15 11:09:55;;;;;;;11.10;8.63;;;11.60;99.90;;;;;;4931615;29;20490;-74
2021/10/15 11:12:22;;;;;;;12.27;8.18;;;11.80;99.90;;;;;;4943082;29;20039;-74
2021/10/15 11:14:50;;;;;;;13.23;9.50;;;11.90;99.90;;;;;;4954705;28;20087;-74
2021/10/15 11:17:17;;;;;;;10.50;8.43;;;11.90;99.90;;;;;;4937729;29;20023;-74
2021/10/15 11:19:43;;;;;;;11.95;8.38;;;11.90;99.90;;;;;;4955020;29;20102;-74
2021/10/15 11:22:09;;;;;;;10.95;8.18;;;11.90;99.90;;;;;;4954738;28;20027;-74
2021/10/15 11:24:35;;;;;;;10.25;7.88;;;12.30;99.90;;;;;;4954894;29;20035;-74
2021/10/15 11:27:00;;;;;;;10.52;8.23;;;12.60;99.90;;;;;;4954857;29;20019;-74
2021/10/15 11:29:26;;;;;;;10.05;7.90;;;12.70;99.90;;;;;;4954733;29;20038;-71
2021/10/15 11:31:53;;;;;;;11.85;8.35;;;12.70;99.90;;;;;;4954788;29;20147;-73
2021/10/15 11:34:18;;;;;;;11.85;7.63;;;12.70;99.90;;;;;;4954677;29;20123;-75
2021/10/15 11:36:44;;;;;;;10.00;7.78;;;12.80;99.90;;;;;;4954698;29;20498;-74
2021/10/15 11:39:09;;;;;;;18.58;8.05;;;12.80;99.90;;;;;;4954560;29;20031;-73
2021/10/15 11:41:49;;;;;;;10.55;7.72;;;12.60;99.90;;;;;;4954465;29;20075;-74
2021/10/15 11:44:15;;;;;;;9.90;7.60;;;12.50;99.90;;;;;;4958026;28;20026;-73
2021/10/15 11:46:41;;;;;;;8.80;7.28;;;12.60;99.90;;;;;;4963878;28;20027;-73
2021/10/15 11:49:06;;;;;;;11.57;7.95;;;12.80;99.90;;;;;;4954292;28;20027;-73
2021/10/15 11:51:32;;;;;;;9.88;7.38;;;13.00;99.90;;;;;;4959916;28;20033;-73
2021/10/15 11:54:00;;;;;;;11.10;8.23;;;13.10;99.90;;;;;;4957518;28;20076;-74
2021/10/15 11:56:28;;;;;;;11.18;6.85;;;13.00;99.90;;;;;;4954348;28;20494;-74
2021/10/15 11:59:04;;;;;;;7.47;6.50;;;13.40;99.90;;;;;;4954920;28;20086;-74
2021/10/15 12:01:35;;;;;;;10.00;6.18;;;13.30;99.90;;;;;;4955373;29;20110;-74
2021/10/15 12:04:00;;;;;;;9.32;6.43;;;13.60;99.90;;;;;;4954528;29;20073;-72
2021/10/15 12:06:33;;;;;;;6.95;5.07;;;13.50;99.90;;;;;;4937086;29;20028;-72
2021/10/15 12:09:05;;;;;;;6.90;5.40;;;13.60;99.90;;;;;;4953807;28;20393;-74
2021/10/15 12:11:36;;;;;;;8.27;4.80;;;13.30;99.90;;;;;;4936706;29;20051;-72
2021/10/15 12:14:03;;;;;;;6.40;4.90;;;13.30;99.90;;;;;;4954057;29;20512;-74
2021/10/15 12:16:35;;;;;;;7.18;4.50;;;13.30;99.90;;;;;;4954030;29;20097;-74
2021/10/15 12:19:09;;;;;;;7.07;4.43;;;13.30;99.90;;;;;;4936762;29;20023;-74
2021/10/15 12:21:40;;;;;;;8.50;4.72;;;13.40;99.90;;;;;;4953769;29;20023;-74
2021/10/15 12:24:28;;;;;;;6.38;4.32;;;13.50;99.90;;;;;;4936835;29;20030;-74
2021/10/15 12:27:10;;;;;;;6.53;4.60;;;13.90;99.90;;;;;;4953879;29;20023;-74
2021/10/15 12:29:43;;;;;;;6.85;4.50;;;13.80;99.90;;;;;;4953743;28;20042;-74
2021/10/15 12:32:25;;;;;;;6.35;4.88;;;13.70;99.90;;;;;;4936521;29;20020;-74
2021/10/15 12:34:51;;;;;;;6.90;4.68;;;13.60;99.90;;;;;;4936689;29;20039;-74
2021/10/15 12:37:16;;;;;;;6.15;4.63;;;13.60;99.90;;;;;;4953830;29;20414;-74
2021/10/15 12:39:42;;;;;;;5.97;3.67;;;13.40;99.90;;;;;;4953736;29;20035;-74
2021/10/15 12:42:15;;;;;;;7.45;4.65;;;13.50;99.90;;;;;;4936349;29;20074;-74
2021/10/15 12:44:41;;;;;;;7.93;4.05;;;13.50;99.90;;;;;;4960586;28;20050;-73
2021/10/15 12:47:08;;;;;;;6.78;4.50;;;13.50;99.90;;;;;;4959473;28;20031;-74
2021/10/15 12:49:58;;;;;;;6.93;4.60;;;13.30;99.90;;;;;;4936323;29;20442;-73
2021/10/15 12:52:41;;;;;;;7.57;4.95;;;13.10;99.90;;;;;;4961908;28;20082;-74
2021/10/15 12:55:13;;;;;;;7.28;4.43;;;13.00;99.90;;;;;;4953814;28;20026;-73
2021/10/15 12:57:38;;;;;;;6.68;4.40;;;12.90;99.90;;;;;;4953566;29;20015;-74